Terminal Aerodrome Forecast
Issued by NWS Memphis, TN

Home | Current Version | Previous Version | Text Only | Print | Product List | Glossary On
Versions: 1 2 3 4 5 6 7 8 9 10 11 12 13 14 15
000
FTUS44 KMEG 241741
TAFMKL
TAF
KMKL 241741Z 2418/2518 18015G25KT P6SM BKN040
     FM250700 18022G32KT P6SM VCTS BKN040CB BKN150
     FM251000 18022G32KT 3SM -TSRA BKN025CB
     FM251300 18020G30KT P6SM SCT015 OVC025
     FM251600 18018G28KT P6SM VCTS BKN035CB=

USA.gov is the U.S. government's official web portal to all federal, state and local government web resources and services.